Terminal Aerodrome Forecast
Issued by NWS Melbourne, FL

Home | Current Version | Previous Version | Text Only | Print | Product List | Glossary On
Versions: 1 2 3 4 5 6 7 8 9 10 11 12 13 14 15 16 17 18 19 20 21 22
000
FTUS42 KMLB 181738
TAFDAB
TAF
KDAB 181738Z 1818/1918 05017G25KT P6SM SCT040 SCT060 BKN200
     FM190000 06009KT P6SM SCT030 SCT050
     FM191500 04014G20KT P6SM SCT020 BKN040=

USA.gov is the U.S. government's official web portal to all federal, state and local government web resources and services.